Time;durP1;ratioP1;P1;durP2;ratioP2;P2;SDS_P1;SDS_P2;PMS_P1;PMS_P2;Temp;Humidity;BMP_temperature;BMP_pressure;BME280_temperature;BME280_humidity;BME280_pressure;Samples;Min_cycle;Max_cycle;Signal;HPM_P1;HPM_P2
2021/11/08 00:00:12;;;;;;;94.83;25.20;;;;;;;;;;6252956;23;20420;-91
2021/11/08 00:02:41;;;;;;;95.30;25.47;;;;;;;;;;6253580;23;20411;-92
2021/11/08 00:05:08;;;;;;;92.70;27.03;;;;;;;;;;6252534;23;20447;-92
2021/11/08 00:07:34;;;;;;;98.53;26.50;;;;;;;;;;6253195;23;20418;-92
2021/11/08 00:10:01;;;;;;;102.87;28.03;;;;;;;;;;6253169;23;20468;-92
2021/11/08 00:12:28;;;;;;;91.27;26.10;;;;;;;;;;6253770;23;20412;-92
2021/11/08 00:14:56;;;;;;;102.80;28.77;;;;;;;;;;6252395;23;20446;-91
2021/11/08 00:17:36;;;;;;;105.47;29.20;;;;;;;;;;6253177;23;20434;-91
2021/11/08 00:20:09;;;;;;;103.47;30.50;;;;;;;;;;6253130;23;20437;-91
2021/11/08 00:22:39;;;;;;;99.07;26.33;;;;;;;;;;6253756;23;20414;-91
2021/11/08 00:25:07;;;;;;;104.73;25.77;;;;;;;;;;6253127;23;20408;-91
2021/11/08 00:27:34;;;;;;;149.43;28.67;;;;;;;;;;6253247;23;20437;-91
2021/11/08 00:30:00;;;;;;;101.13;29.60;;;;;;;;;;6252234;23;20715;-91
2021/11/08 00:32:26;;;;;;;94.17;28.43;;;;;;;;;;6253617;23;20415;-91
2021/11/08 00:34:54;;;;;;;109.70;33.50;;;;;;;;;;6253274;23;20437;-91
2021/11/08 00:37:22;;;;;;;204.07;32.80;;;;;;;;;;6254332;23;20398;-91
2021/11/08 00:39:49;;;;;;;538.60;53.17;;;;;;;;;;6253091;23;20440;-92
2021/11/08 00:42:15;;;;;;;109.50;31.90;;;;;;;;;;6261000;23;20415;-91
2021/11/08 00:44:42;;;;;;;105.83;29.53;;;;;;;;;;6256660;23;20514;-92
2021/11/08 00:47:08;;;;;;;240.57;35.50;;;;;;;;;;6253946;23;20418;-91
2021/11/08 00:49:36;;;;;;;96.13;27.17;;;;;;;;;;6251073;23;20470;-92
2021/11/08 00:52:04;;;;;;;104.93;28.63;;;;;;;;;;6251867;23;20412;-90
2021/11/08 00:54:32;;;;;;;289.23;35.70;;;;;;;;;;6251568;23;20412;-90
2021/11/08 00:57:00;;;;;;;274.67;37.60;;;;;;;;;;6249470;23;20446;-90
2021/11/08 00:59:27;;;;;;;223.10;34.60;;;;;;;;;;6251763;23;20452;-90
2021/11/08 01:01:56;;;;;;;107.13;31.00;;;;;;;;;;6252170;23;21148;-90
2021/11/08 01:04:24;;;;;;;104.60;31.37;;;;;;;;;;6251674;23;20436;-91
2021/11/08 01:06:54;;;;;;;108.30;32.30;;;;;;;;;;6251338;23;20414;-91
2021/11/08 01:09:20;;;;;;;213.60;36.87;;;;;;;;;;6251137;23;20407;-90
2021/11/08 01:11:48;;;;;;;201.47;37.10;;;;;;;;;;6249255;23;20442;-92
2021/11/08 01:14:16;;;;;;;100.47;30.57;;;;;;;;;;6249791;23;20471;-90
2021/11/08 01:16:43;;;;;;;283.47;40.07;;;;;;;;;;6252231;23;20461;-91
2021/11/08 01:19:10;;;;;;;117.60;34.20;;;;;;;;;;6252759;23;20406;-91
2021/11/08 01:21:37;;;;;;;104.17;29.77;;;;;;;;;;6252591;23;20402;-91
2021/11/08 01:24:04;;;;;;;101.07;30.40;;;;;;;;;;6252393;23;20464;-91
2021/11/08 01:26:30;;;;;;;109.80;34.80;;;;;;;;;;6252506;23;20413;-92
2021/11/08 01:28:58;;;;;;;104.60;31.43;;;;;;;;;;6252125;23;20418;-91
2021/11/08 01:31:25;;;;;;;102.20;29.27;;;;;;;;;;6252238;23;20405;-91
2021/11/08 01:33:53;;;;;;;101.10;28.83;;;;;;;;;;6252272;23;20419;-92
2021/11/08 01:36:23;;;;;;;102.43;30.00;;;;;;;;;;6249543;23;20515;-91
2021/11/08 01:38:51;;;;;;;109.03;31.10;;;;;;;;;;6250032;23;20779;-92
2021/11/08 01:41:19;;;;;;;98.07;28.63;;;;;;;;;;6253012;23;20415;-91
2021/11/08 01:43:46;;;;;;;216.77;35.70;;;;;;;;;;6251916;23;20441;-92
2021/11/08 01:46:15;;;;;;;497.37;45.80;;;;;;;;;;6248918;23;20446;-91
2021/11/08 01:48:42;;;;;;;447.60;43.50;;;;;;;;;;6248847;23;20414;-91
2021/11/08 01:51:08;;;;;;;356.37;37.20;;;;;;;;;;6250585;23;20406;-92
2021/11/08 01:53:35;;;;;;;218.63;33.10;;;;;;;;;;6250181;23;20405;-92
2021/11/08 01:56:02;;;;;;;148.03;31.07;;;;;;;;;;6249476;23;20449;-92
2021/11/08 01:58:29;;;;;;;307.83;39.67;;;;;;;;;;6248610;23;21084;-92
2021/11/08 02:00:56;;;;;;;105.23;28.37;;;;;;;;;;6249550;23;20418;-92
2021/11/08 02:03:24;;;;;;;105.90;32.27;;;;;;;;;;6248942;23;20439;-92
2021/11/08 02:05:51;;;;;;;113.77;33.23;;;;;;;;;;6252025;23;20402;-92
2021/11/08 02:08:18;;;;;;;210.90;34.80;;;;;;;;;;6251885;23;20414;-93
2021/11/08 02:10:44;;;;;;;112.93;35.33;;;;;;;;;;6250612;23;20406;-93
2021/11/08 02:13:11;;;;;;;171.17;35.70;;;;;;;;;;6249596;23;20436;-94
2021/11/08 02:15:37;;;;;;;104.37;31.47;;;;;;;;;;6253821;23;21039;-93
2021/11/08 02:18:04;;;;;;;102.73;32.90;;;;;;;;;;6254133;23;20414;-93
2021/11/08 02:20:32;;;;;;;111.53;34.47;;;;;;;;;;6253182;23;20413;-93
2021/11/08 02:23:00;;;;;;;157.93;32.00;;;;;;;;;;6252804;23;20402;-94
2021/11/08 02:25:28;;;;;;;198.47;38.10;;;;;;;;;;6252405;23;20416;-93
2021/11/08 02:27:54;;;;;;;153.17;35.87;;;;;;;;;;6252492;23;20409;-94
2021/11/08 02:30:22;;;;;;;107.30;32.10;;;;;;;;;;6252759;23;20414;-93
2021/11/08 02:32:51;;;;;;;345.43;42.70;;;;;;;;;;6253376;23;20487;-93
2021/11/08 02:35:18;;;;;;;244.97;37.30;;;;;;;;;;6253045;23;20445;-93
2021/11/08 02:37:46;;;;;;;219.53;36.37;;;;;;;;;;6252921;23;20409;-93
2021/11/08 02:40:19;;;;;;;169.30;32.10;;;;;;;;;;6253537;23;20413;-92
2021/11/08 02:42:48;;;;;;;246.33;34.47;;;;;;;;;;6254450;23;20433;-93
2021/11/08 02:45:14;;;;;;;103.37;28.50;;;;;;;;;;6253133;23;20441;-93
2021/11/08 02:47:42;;;;;;;100.07;26.60;;;;;;;;;;6252096;23;20412;-94
2021/11/08 02:50:09;;;;;;;97.00;25.60;;;;;;;;;;6252220;23;20406;-92
2021/11/08 02:52:35;;;;;;;101.87;24.70;;;;;;;;;;6251898;23;20494;-93
2021/11/08 02:55:03;;;;;;;90.40;24.47;;;;;;;;;;6252935;23;20441;-94
2021/11/08 02:57:30;;;;;;;93.33;25.57;;;;;;;;;;6252659;23;20410;-93
2021/11/08 02:59:58;;;;;;;103.20;29.50;;;;;;;;;;6253707;23;20421;-93
2021/11/08 03:02:25;;;;;;;95.93;27.20;;;;;;;;;;6254129;23;20418;-93
2021/11/08 03:04:53;;;;;;;101.43;27.67;;;;;;;;;;6253472;23;20410;-91
2021/11/08 03:07:20;;;;;;;99.73;25.57;;;;;;;;;;6254721;23;20446;-92
2021/11/08 03:09:50;;;;;;;96.30;25.97;;;;;;;;;;6254621;23;20477;-92
2021/11/08 03:12:21;;;;;;;119.77;29.60;;;;;;;;;;6255002;23;20410;-93
2021/11/08 03:14:56;;;;;;;106.10;28.87;;;;;;;;;;6254555;23;20516;-92
2021/11/08 03:17:25;;;;;;;492.43;47.40;;;;;;;;;;6263235;23;20441;-93
2021/11/08 03:19:52;;;;;;;325.53;39.77;;;;;;;;;;6264248;23;21028;-92
2021/11/08 03:22:21;;;;;;;194.20;32.70;;;;;;;;;;6252578;23;20437;-93
2021/11/08 03:24:51;;;;;;;109.87;30.33;;;;;;;;;;6251540;23;20414;-92
2021/11/08 03:27:24;;;;;;;291.73;34.10;;;;;;;;;;6251155;23;20436;-92
2021/11/08 03:29:51;;;;;;;154.43;27.07;;;;;;;;;;6251307;23;20454;-92
2021/11/08 03:32:18;;;;;;;101.47;25.50;;;;;;;;;;6253214;23;20413;-93
2021/11/08 03:34:49;;;;;;;103.57;28.20;;;;;;;;;;6253170;23;20414;-93
2021/11/08 03:37:16;;;;;;;88.33;23.10;;;;;;;;;;6253589;23;20484;-92
2021/11/08 03:39:42;;;;;;;92.37;24.70;;;;;;;;;;6251756;23;20406;-92
2021/11/08 03:42:09;;;;;;;90.17;23.03;;;;;;;;;;6254075;23;20406;-92
2021/11/08 03:44:37;;;;;;;130.47;25.57;;;;;;;;;;6253199;23;20476;-92
2021/11/08 03:47:03;;;;;;;159.57;28.13;;;;;;;;;;6252449;23;20436;-91
2021/11/08 03:49:30;;;;;;;323.00;33.67;;;;;;;;;;6251992;23;20436;-92
2021/11/08 03:51:56;;;;;;;104.00;24.47;;;;;;;;;;6250862;23;20414;-92
2021/11/08 03:54:23;;;;;;;93.70;24.83;;;;;;;;;;6251762;23;20413;-91
2021/11/08 03:56:49;;;;;;;376.00;37.83;;;;;;;;;;6253085;23;20516;-92
2021/11/08 03:59:16;;;;;;;328.17;30.87;;;;;;;;;;6253445;23;20471;-92
2021/11/08 04:01:44;;;;;;;108.20;26.10;;;;;;;;;;6253022;23;20414;-92
2021/11/08 04:04:10;;;;;;;90.33;23.53;;;;;;;;;;6253097;23;20420;-91
2021/11/08 04:06:38;;;;;;;102.07;26.00;;;;;;;;;;6252797;23;20414;-91
2021/11/08 04:09:07;;;;;;;95.93;24.43;;;;;;;;;;6252634;23;20410;-92
2021/11/08 04:11:33;;;;;;;91.47;23.80;;;;;;;;;;6252160;23;20470;-92
2021/11/08 04:14:00;;;;;;;90.70;23.30;;;;;;;;;;6251777;23;20426;-93
2021/11/08 04:16:29;;;;;;;87.77;22.47;;;;;;;;;;6249990;23;20453;-91
2021/11/08 04:18:57;;;;;;;471.80;37.10;;;;;;;;;;6250045;23;20414;-91
2021/11/08 04:21:24;;;;;;;95.40;23.77;;;;;;;;;;6251244;23;20411;-92
2021/11/08 04:23:51;;;;;;;172.40;25.77;;;;;;;;;;6250661;23;20464;-92
2021/11/08 04:26:19;;;;;;;136.27;23.80;;;;;;;;;;6255344;23;20402;-92
2021/11/08 04:28:51;;;;;;;112.40;25.47;;;;;;;;;;6253325;23;20418;-92
2021/11/08 04:31:18;;;;;;;240.90;30.53;;;;;;;;;;6249621;23;20406;-92
2021/11/08 04:33:47;;;;;;;129.83;26.50;;;;;;;;;;6249787;23;20406;-92
2021/11/08 04:39:08;;;;;;;116.90;25.50;;;;;;;;;;6248562;23;20406;-93
2021/11/08 04:41:39;;;;;;;220.23;29.90;;;;;;;;;;6249691;23;20500;-92
2021/11/08 04:44:20;;;;;;;182.70;26.77;;;;;;;;;;6249235;23;20487;-93
2021/11/08 04:47:11;;;;;;;119.33;25.40;;;;;;;;;;6252248;23;20398;-92
2021/11/08 04:52:35;;;;;;;227.10;31.70;;;;;;;;;;6251753;23;20814;-92
2021/11/08 04:55:08;;;;;;;214.93;31.23;;;;;;;;;;6253128;23;20405;-93
2021/11/08 04:58:01;;;;;;;320.47;41.60;;;;;;;;;;6252372;23;20492;-92
2021/11/08 05:25:29;;;;;;;135.83;34.50;;;;;;;;;;6249809;23;20413;-96
2021/11/08 05:28:07;;;;;;;144.50;34.83;;;;;;;;;;6253241;23;20512;-94
2021/11/08 05:30:34;;;;;;;152.07;35.87;;;;;;;;;;6252137;23;20424;-94
2021/11/08 05:33:01;;;;;;;166.17;33.57;;;;;;;;;;6252208;23;20409;-94
2021/11/08 05:35:29;;;;;;;208.63;35.73;;;;;;;;;;6251191;23;20414;-93
2021/11/08 05:37:55;;;;;;;191.43;34.70;;;;;;;;;;6250858;23;20461;-92
2021/11/08 05:40:27;;;;;;;174.40;35.20;;;;;;;;;;6252100;23;20414;-93
2021/11/08 05:42:54;;;;;;;131.63;34.10;;;;;;;;;;6253364;23;20464;-93
2021/11/08 05:45:21;;;;;;;125.77;32.00;;;;;;;;;;6252550;23;20446;-93
2021/11/08 05:47:48;;;;;;;117.90;31.53;;;;;;;;;;6254181;23;20492;-92
2021/11/08 05:50:16;;;;;;;125.77;31.37;;;;;;;;;;6257423;23;20406;-93
2021/11/08 05:52:43;;;;;;;106.27;31.00;;;;;;;;;;6268617;23;20401;-92
2021/11/08 05:55:11;;;;;;;113.43;30.97;;;;;;;;;;6265745;22;20433;-92
2021/11/08 05:57:45;;;;;;;101.10;30.77;;;;;;;;;;6255459;23;20460;-93
2021/11/08 06:49:43;;;;;;;178.20;37.30;;;;;;;;;;6252741;23;20475;-92
2021/11/08 06:52:11;;;;;;;195.13;43.30;;;;;;;;;;6251705;23;20410;-94
2021/11/08 06:54:39;;;;;;;177.10;40.00;;;;;;;;;;6251952;23;20482;-94
2021/11/08 06:57:11;;;;;;;167.67;36.90;;;;;;;;;;6253411;23;20541;-93
2021/11/08 06:59:38;;;;;;;173.87;36.20;;;;;;;;;;6251769;23;20411;-93
2021/11/08 07:02:06;;;;;;;234.23;38.90;;;;;;;;;;6252952;23;20925;-93
2021/11/08 07:04:33;;;;;;;175.77;38.10;;;;;;;;;;6253102;23;20407;-94
2021/11/08 07:06:59;;;;;;;165.83;35.47;;;;;;;;;;6253340;23;20411;-95
2021/11/08 07:09:26;;;;;;;175.77;37.80;;;;;;;;;;6252932;23;20471;-94
2021/11/08 07:11:54;;;;;;;166.87;37.20;;;;;;;;;;6253315;23;20400;-93
2021/11/08 07:14:20;;;;;;;160.03;36.57;;;;;;;;;;6254009;23;20423;-93
2021/11/08 07:16:47;;;;;;;157.13;34.57;;;;;;;;;;6249967;23;20493;-92
2021/11/08 07:19:15;;;;;;;146.27;37.77;;;;;;;;;;6250217;23;20413;-93
2021/11/08 07:21:42;;;;;;;155.97;37.43;;;;;;;;;;6249139;23;20423;-93
2021/11/08 07:24:08;;;;;;;127.47;35.50;;;;;;;;;;6247209;23;20405;-93
2021/11/08 07:26:35;;;;;;;145.13;37.90;;;;;;;;;;6245840;23;20415;-92
2021/11/08 07:29:01;;;;;;;153.87;38.20;;;;;;;;;;6250303;23;20456;-94
2021/11/08 07:31:28;;;;;;;144.27;35.77;;;;;;;;;;6252006;23;20503;-94
2021/11/08 07:33:54;;;;;;;149.13;38.80;;;;;;;;;;6252649;23;20402;-95
2021/11/08 07:36:24;;;;;;;154.17;37.13;;;;;;;;;;6226107;23;20414;-94
2021/11/08 07:38:51;;;;;;;156.80;36.93;;;;;;;;;;6254554;23;20400;-94
2021/11/08 07:41:18;;;;;;;186.93;37.67;;;;;;;;;;6253332;23;20413;-94
2021/11/08 07:43:47;;;;;;;146.23;37.17;;;;;;;;;;6252853;23;20444;-94
2021/11/08 07:46:13;;;;;;;148.63;40.50;;;;;;;;;;6251843;23;20408;-94
2021/11/08 07:48:40;;;;;;;133.97;41.40;;;;;;;;;;6253296;23;20408;-93
2021/11/08 07:51:07;;;;;;;141.40;39.93;;;;;;;;;;6252016;23;20439;-92
2021/11/08 07:53:35;;;;;;;139.70;41.67;;;;;;;;;;6250924;23;20427;-94
2021/11/08 07:56:02;;;;;;;119.77;39.90;;;;;;;;;;6253575;23;20431;-93
2021/11/08 07:58:29;;;;;;;120.60;36.93;;;;;;;;;;6252489;23;20459;-93
2021/11/08 08:00:55;;;;;;;117.97;37.00;;;;;;;;;;6251196;23;20439;-93
2021/11/08 08:03:22;;;;;;;127.07;40.03;;;;;;;;;;6252267;23;20421;-94
2021/11/08 08:05:49;;;;;;;114.43;37.10;;;;;;;;;;6253420;23;20433;-93
2021/11/08 08:08:16;;;;;;;127.40;42.53;;;;;;;;;;6253622;23;20413;-95
2021/11/08 08:10:43;;;;;;;135.13;41.73;;;;;;;;;;6253104;23;20409;-91
2021/11/08 08:13:10;;;;;;;129.60;40.00;;;;;;;;;;6252987;23;20421;-92
2021/11/08 08:15:36;;;;;;;129.03;41.03;;;;;;;;;;6253347;23;20413;-91
2021/11/08 08:18:03;;;;;;;123.57;41.80;;;;;;;;;;6255463;23;20484;-96
2021/11/08 08:20:31;;;;;;;123.13;40.20;;;;;;;;;;6253768;23;20442;-95
2021/11/08 08:22:58;;;;;;;118.00;40.47;;;;;;;;;;6262998;23;20422;-96
2021/11/08 08:25:25;;;;;;;127.83;41.30;;;;;;;;;;6264622;23;20395;-96
2021/11/08 08:27:53;;;;;;;129.90;43.70;;;;;;;;;;6268959;22;20425;-95
2021/11/08 08:30:20;;;;;;;130.47;45.90;;;;;;;;;;6257184;22;20437;-92
2021/11/08 08:32:46;;;;;;;134.53;44.77;;;;;;;;;;6253529;23;20446;-92
2021/11/08 08:35:13;;;;;;;143.43;45.00;;;;;;;;;;6252838;23;20408;-93
2021/11/08 08:37:39;;;;;;;138.17;46.77;;;;;;;;;;6249939;23;20990;-92
2021/11/08 08:40:06;;;;;;;129.07;44.40;;;;;;;;;;6248416;23;20414;-92
2021/11/08 08:42:33;;;;;;;145.43;46.93;;;;;;;;;;6251052;23;20436;-92
2021/11/08 08:45:01;;;;;;;142.27;48.20;;;;;;;;;;6252265;23;20455;-93
2021/11/08 08:47:27;;;;;;;139.40;47.07;;;;;;;;;;6252514;23;20436;-93
2021/11/08 08:49:54;;;;;;;138.93;46.70;;;;;;;;;;6253310;23;20440;-92
2021/11/08 08:52:20;;;;;;;136.17;45.70;;;;;;;;;;6252368;23;20410;-91
2021/11/08 08:54:47;;;;;;;129.40;46.20;;;;;;;;;;6252804;23;20406;-91
2021/11/08 08:57:13;;;;;;;129.93;46.80;;;;;;;;;;6251057;23;20444;-92
2021/11/08 08:59:41;;;;;;;133.20;46.20;;;;;;;;;;6252385;23;20440;-91
2021/11/08 09:02:09;;;;;;;132.77;46.47;;;;;;;;;;6253421;23;20553;-91
2021/11/08 09:04:36;;;;;;;135.27;45.53;;;;;;;;;;6253024;23;20436;-92
2021/11/08 09:07:03;;;;;;;132.97;47.23;;;;;;;;;;6252808;23;20471;-93
2021/11/08 09:09:29;;;;;;;137.27;46.10;;;;;;;;;;6252629;23;20911;-92
2021/11/08 09:11:56;;;;;;;126.90;44.50;;;;;;;;;;6252433;23;20481;-93
2021/11/08 09:14:22;;;;;;;130.07;44.83;;;;;;;;;;6251996;23;20426;-94
2021/11/08 09:16:49;;;;;;;129.73;45.20;;;;;;;;;;6251512;23;20401;-93
2021/11/08 09:19:17;;;;;;;127.63;45.13;;;;;;;;;;6251387;23;20965;-93
2021/11/08 09:21:43;;;;;;;126.63;43.23;;;;;;;;;;6251907;23;20415;-93
2021/11/08 09:24:10;;;;;;;124.40;41.07;;;;;;;;;;6250630;23;20413;-93
2021/11/08 09:26:37;;;;;;;122.93;41.90;;;;;;;;;;6254127;23;20406;-94
2021/11/08 09:29:04;;;;;;;120.27;40.50;;;;;;;;;;6253117;23;20437;-92
2021/11/08 09:31:30;;;;;;;114.10;39.40;;;;;;;;;;6251689;23;21169;-92
2021/11/08 09:34:03;;;;;;;113.93;40.10;;;;;;;;;;6251700;23;20405;-91
2021/11/08 09:36:31;;;;;;;110.50;38.70;;;;;;;;;;6251981;23;20437;-93
2021/11/08 09:38:59;;;;;;;113.70;40.00;;;;;;;;;;6251810;23;21000;-93
2021/11/08 09:41:28;;;;;;;113.00;38.67;;;;;;;;;;6252137;23;20434;-93
2021/11/08 09:43:55;;;;;;;127.50;40.90;;;;;;;;;;6251712;23;20448;-92
2021/11/08 09:46:22;;;;;;;111.27;37.50;;;;;;;;;;6252654;23;20402;-94
2021/11/08 09:48:51;;;;;;;120.73;39.80;;;;;;;;;;6253162;23;20417;-92
2021/11/08 09:51:18;;;;;;;107.37;34.67;;;;;;;;;;6252849;23;20413;-94
2021/11/08 09:53:46;;;;;;;113.23;33.97;;;;;;;;;;6253092;23;20414;-94
2021/11/08 09:56:13;;;;;;;103.80;32.40;;;;;;;;;;6254159;23;20432;-94
2021/11/08 09:58:40;;;;;;;107.67;31.30;;;;;;;;;;6251349;23;20457;-94
2021/11/08 10:01:07;;;;;;;90.30;26.97;;;;;;;;;;6252390;23;20414;-94
2021/11/08 10:03:34;;;;;;;106.83;30.30;;;;;;;;;;6252117;23;20413;-94
2021/11/08 10:06:02;;;;;;;103.73;31.13;;;;;;;;;;6252502;23;20414;-94
2021/11/08 10:08:31;;;;;;;98.40;29.77;;;;;;;;;;6251996;23;20854;-94
2021/11/08 10:11:03;;;;;;;99.57;29.27;;;;;;;;;;6252927;23;20475;-95
2021/11/08 10:13:30;;;;;;;91.60;29.63;;;;;;;;;;6249172;23;20532;-96
2021/11/08 10:15:59;;;;;;;103.00;30.27;;;;;;;;;;6246137;23;20406;-93
2021/11/08 10:18:25;;;;;;;94.33;26.90;;;;;;;;;;6251174;23;20953;-95
2021/11/08 10:20:55;;;;;;;90.23;27.63;;;;;;;;;;6245641;23;20412;-93
2021/11/08 10:23:26;;;;;;;93.00;25.93;;;;;;;;;;6250556;23;20433;-94
2021/11/08 10:25:53;;;;;;;93.30;24.90;;;;;;;;;;6250176;23;20915;-95
2021/11/08 10:28:23;;;;;;;87.33;26.00;;;;;;;;;;6251136;23;20885;-95
2021/11/08 10:30:56;;;;;;;89.77;25.97;;;;;;;;;;6256762;23;20397;-94
2021/11/08 10:33:23;;;;;;;89.57;26.03;;;;;;;;;;6252985;23;20425;-94
2021/11/08 10:35:51;;;;;;;92.30;26.80;;;;;;;;;;6254128;23;20405;-96
2021/11/08 10:38:19;;;;;;;94.00;28.57;;;;;;;;;;6255689;23;20460;-94
2021/11/08 10:40:47;;;;;;;90.50;28.17;;;;;;;;;;6255019;23;20414;-93
2021/11/08 10:43:14;;;;;;;98.27;27.20;;;;;;;;;;6255670;23;20442;-94
2021/11/08 10:45:53;;;;;;;100.73;27.60;;;;;;;;;;6225282;23;20419;-95
2021/11/08 10:48:21;;;;;;;99.63;27.37;;;;;;;;;;6225315;23;20402;-93
2021/11/08 10:50:49;;;;;;;92.50;26.03;;;;;;;;;;6222968;23;20407;-94
2021/11/08 10:53:15;;;;;;;90.97;26.60;;;;;;;;;;6226427;23;20417;-94
2021/11/08 10:55:42;;;;;;;97.60;26.43;;;;;;;;;;6230058;23;20481;-93
2021/11/08 10:58:10;;;;;;;91.47;26.33;;;;;;;;;;6232024;23;20457;-95
2021/11/08 11:00:46;;;;;;;90.30;25.60;;;;;;;;;;6223031;23;20499;-93
2021/11/08 11:03:16;;;;;;;87.90;24.87;;;;;;;;;;6222834;23;20419;-94
2021/11/08 11:05:43;;;;;;;88.67;24.87;;;;;;;;;;6223376;23;20486;-94
2021/11/08 11:08:14;;;;;;;93.60;24.80;;;;;;;;;;6224127;23;20415;-94
2021/11/08 11:10:43;;;;;;;91.70;25.07;;;;;;;;;;6223382;23;20439;-94
2021/11/08 11:13:16;;;;;;;86.93;25.10;;;;;;;;;;6224016;23;20429;-94
2021/11/08 11:15:43;;;;;;;86.13;25.03;;;;;;;;;;6224655;23;20499;-94
2021/11/08 11:18:12;;;;;;;93.03;25.60;;;;;;;;;;6224058;23;20450;-95
2021/11/08 11:20:43;;;;;;;88.10;24.67;;;;;;;;;;6224038;23;20446;-95
2021/11/08 11:23:15;;;;;;;89.60;24.30;;;;;;;;;;6225397;23;20424;-96
2021/11/08 11:25:43;;;;;;;89.97;24.20;;;;;;;;;;6225121;23;20416;-93
2021/11/08 11:28:10;;;;;;;88.03;22.60;;;;;;;;;;6224084;23;20420;-94
2021/11/08 11:30:38;;;;;;;85.87;23.20;;;;;;;;;;6222369;23;20412;-93
2021/11/08 11:33:06;;;;;;;80.63;21.07;;;;;;;;;;6220137;23;20482;-93
2021/11/08 11:35:34;;;;;;;82.77;21.67;;;;;;;;;;6220788;23;20418;-96
2021/11/08 11:38:04;;;;;;;81.23;21.63;;;;;;;;;;6221050;23;20525;-92
2021/11/08 11:40:31;;;;;;;85.57;22.50;;;;;;;;;;6222020;23;20474;-93
2021/11/08 11:42:59;;;;;;;86.33;20.80;;;;;;;;;;6222779;23;20417;-94
2021/11/08 11:45:26;;;;;;;85.90;21.47;;;;;;;;;;6248913;23;20438;-94
2021/11/08 11:47:57;;;;;;;83.50;20.80;;;;;;;;;;6251492;23;20406;-94
2021/11/08 11:50:24;;;;;;;79.27;20.10;;;;;;;;;;6253023;23;20401;-96
2021/11/08 11:52:51;;;;;;;80.53;19.47;;;;;;;;;;6254486;23;20409;-94
2021/11/08 11:55:20;;;;;;;85.57;22.57;;;;;;;;;;6254167;23;20436;-96
2021/11/08 11:57:46;;;;;;;83.20;21.83;;;;;;;;;;6251312;23;20410;-96
2021/11/08 12:00:14;;;;;;;90.27;21.80;;;;;;;;;;6252302;23;20414;-96
2021/11/08 12:02:40;;;;;;;85.50;21.30;;;;;;;;;;6253697;23;20406;-94
2021/11/08 12:05:07;;;;;;;92.03;22.47;;;;;;;;;;6253064;23;20402;-95
2021/11/08 12:07:34;;;;;;;85.07;23.00;;;;;;;;;;6252540;23;20409;-95
2021/11/08 12:10:02;;;;;;;84.10;23.50;;;;;;;;;;6252842;23;20410;-96
2021/11/08 12:12:30;;;;;;;87.67;24.23;;;;;;;;;;6254057;23;20409;-95
2021/11/08 12:15:05;;;;;;;86.90;25.43;;;;;;;;;;6253808;23;20421;-95
2021/11/08 12:17:35;;;;;;;90.63;29.43;;;;;;;;;;6253460;23;20413;-96
2021/11/08 12:20:04;;;;;;;100.57;31.40;;;;;;;;;;6252774;23;20416;-94
2021/11/08 12:22:32;;;;;;;101.27;30.20;;;;;;;;;;6252520;23;20432;-96
2021/11/08 12:25:00;;;;;;;94.87;29.70;;;;;;;;;;6252560;23;20730;-93
2021/11/08 12:27:35;;;;;;;100.83;32.83;;;;;;;;;;6254408;23;20410;-96
2021/11/08 12:30:07;;;;;;;107.40;35.30;;;;;;;;;;6254751;23;20412;-96
2021/11/08 12:32:40;;;;;;;113.17;41.47;;;;;;;;;;6251728;23;20409;-96
2021/11/08 12:35:13;;;;;;;109.47;40.73;;;;;;;;;;6251048;23;20429;-95
2021/11/08 12:37:40;;;;;;;103.47;33.97;;;;;;;;;;6252912;23;20416;-95
2021/11/08 12:40:09;;;;;;;107.20;34.60;;;;;;;;;;6252892;23;20520;-95
2021/11/08 12:42:41;;;;;;;104.07;33.50;;;;;;;;;;6251925;23;20417;-95
2021/11/08 12:45:10;;;;;;;113.93;36.17;;;;;;;;;;6253634;23;20438;-94
2021/11/08 12:47:36;;;;;;;106.80;34.23;;;;;;;;;;6251790;23;20444;-94
2021/11/08 12:50:04;;;;;;;118.07;35.80;;;;;;;;;;6243370;23;20464;-96
2021/11/08 12:52:32;;;;;;;102.90;34.87;;;;;;;;;;6246814;23;20456;-96
2021/11/08 12:55:05;;;;;;;104.30;32.90;;;;;;;;;;6245299;23;20402;-96
2021/11/08 12:57:32;;;;;;;111.27;33.80;;;;;;;;;;6250543;23;20431;-94
2021/11/08 13:00:01;;;;;;;103.53;31.37;;;;;;;;;;6252404;23;20457;-95
2021/11/08 13:02:30;;;;;;;95.17;29.37;;;;;;;;;;6250492;23;20425;-96
2021/11/08 13:04:58;;;;;;;95.40;29.83;;;;;;;;;;6249625;23;20413;-95
2021/11/08 13:07:28;;;;;;;97.93;28.00;;;;;;;;;;6249911;23;20424;-96
2021/11/08 13:09:56;;;;;;;96.17;26.13;;;;;;;;;;6252504;23;20412;-96
2021/11/08 13:12:24;;;;;;;88.90;27.73;;;;;;;;;;6253802;23;20405;-96
2021/11/08 13:15:01;;;;;;;86.57;24.23;;;;;;;;;;6255284;23;20406;-96
2021/11/08 13:17:29;;;;;;;85.40;23.00;;;;;;;;;;6255531;23;20406;-96
2021/11/08 13:19:57;;;;;;;84.50;21.00;;;;;;;;;;6261213;23;20432;-95
2021/11/08 13:22:26;;;;;;;87.40;21.17;;;;;;;;;;6261211;22;20405;-96
2021/11/08 13:25:00;;;;;;;91.27;22.90;;;;;;;;;;6260395;22;20406;-96
2021/11/08 13:27:26;;;;;;;86.07;21.80;;;;;;;;;;6246772;23;20437;-96
2021/11/08 13:29:56;;;;;;;91.40;22.77;;;;;;;;;;6250105;23;20413;-96
2021/11/08 13:32:25;;;;;;;84.50;22.60;;;;;;;;;;6254863;23;20409;-96
2021/11/08 13:34:52;;;;;;;83.67;22.57;;;;;;;;;;6253626;23;20408;-96
2021/11/08 13:37:21;;;;;;;84.50;22.93;;;;;;;;;;6250859;23;20408;-96
2021/11/08 13:39:50;;;;;;;84.10;23.37;;;;;;;;;;6250577;23;20464;-96
2021/11/08 13:42:18;;;;;;;82.00;22.43;;;;;;;;;;6253772;23;20440;-95
2021/11/08 13:44:46;;;;;;;87.33;22.90;;;;;;;;;;6252486;23;20444;-96
2021/11/08 13:47:12;;;;;;;92.30;22.63;;;;;;;;;;6252466;23;20607;-96
2021/11/08 13:49:40;;;;;;;88.20;21.70;;;;;;;;;;6250060;23;20420;-96
2021/11/08 13:52:07;;;;;;;79.37;18.73;;;;;;;;;;6252126;23;20925;-96
2021/11/08 13:54:35;;;;;;;81.50;18.57;;;;;;;;;;6251044;23;20409;-96
2021/11/08 13:57:03;;;;;;;91.77;20.87;;;;;;;;;;6252722;23;20410;-96
2021/11/08 13:59:31;;;;;;;82.03;19.20;;;;;;;;;;6253983;23;20464;-96
2021/11/08 14:01:59;;;;;;;94.87;20.70;;;;;;;;;;6255840;23;20420;-96
2021/11/08 14:04:35;;;;;;;84.23;19.77;;;;;;;;;;6252558;23;20497;-96
2021/11/08 14:07:06;;;;;;;90.23;21.00;;;;;;;;;;6251388;23;20409;-95
2021/11/08 14:09:33;;;;;;;82.20;21.20;;;;;;;;;;6251648;23;20862;-95
2021/11/08 14:12:01;;;;;;;94.77;20.87;;;;;;;;;;6253427;23;20417;-96
2021/11/08 14:14:28;;;;;;;90.30;20.93;;;;;;;;;;6266965;22;20839;-96
2021/11/08 14:17:09;;;;;;;81.60;19.30;;;;;;;;;;6261697;23;20809;-96
2021/11/08 14:19:39;;;;;;;95.07;20.47;;;;;;;;;;6261515;23;20522;-96
2021/11/08 14:35:29;;;;;;;87.20;21.37;;;;;;;;;;6240714;22;20459;-96
2021/11/08 14:46:35;;;;;;;84.03;20.53;;;;;;;;;;6271959;22;20462;-96
2021/11/08 14:55:24;;;;;;;91.83;21.07;;;;;;;;;;6281796;22;20565;-96
2021/11/08 14:58:14;;;;;;;85.93;19.73;;;;;;;;;;6278719;22;20458;-96
2021/11/08 15:09:24;;;;;;;94.97;20.23;;;;;;;;;;6241346;22;20425;-96
2021/11/08 15:18:33;;;;;;;89.00;22.60;;;;;;;;;;6273366;22;20951;-96
2021/11/08 15:21:05;;;;;;;89.57;21.37;;;;;;;;;;6284709;22;20409;-96
2021/11/08 15:23:37;;;;;;;89.67;23.43;;;;;;;;;;6244089;22;20485;-96
2021/11/08 15:26:05;;;;;;;85.00;20.20;;;;;;;;;;6278626;22;20497;-96
2021/11/08 15:34:13;;;;;;;84.13;18.57;;;;;;;;;;6254664;22;20455;-96
2021/11/08 15:37:07;;;;;;;81.37;18.77;;;;;;;;;;6287455;22;20401;-96
2021/11/08 15:50:29;;;;;;;91.77;24.40;;;;;;;;;;6242210;22;20406;-96
2021/11/08 16:03:37;;;;;;;97.80;25.43;;;;;;;;;;6296587;22;20463;-96
2021/11/08 16:06:04;;;;;;;99.50;25.47;;;;;;;;;;6285159;22;20412;-96
2021/11/08 16:08:32;;;;;;;103.43;26.07;;;;;;;;;;6287778;22;20417;-96
2021/11/08 16:10:59;;;;;;;92.17;23.37;;;;;;;;;;6285251;22;20472;-96
2021/11/08 16:13:26;;;;;;;90.47;22.10;;;;;;;;;;6283824;22;20439;-96
2021/11/08 16:15:53;;;;;;;90.97;22.83;;;;;;;;;;6285893;22;20409;-95
2021/11/08 16:18:20;;;;;;;96.03;23.03;;;;;;;;;;6285304;22;20481;-95
2021/11/08 16:20:50;;;;;;;90.50;22.10;;;;;;;;;;6282909;22;20448;-94
2021/11/08 16:23:17;;;;;;;84.97;20.37;;;;;;;;;;6282860;22;20780;-96
2021/11/08 16:25:44;;;;;;;86.50;20.70;;;;;;;;;;6290731;22;20406;-96
2021/11/08 16:28:14;;;;;;;82.37;19.10;;;;;;;;;;6278820;22;20441;-95
2021/11/08 16:30:41;;;;;;;84.30;21.43;;;;;;;;;;6292082;22;20405;-96
2021/11/08 16:33:09;;;;;;;91.83;21.67;;;;;;;;;;6281740;22;20411;-94
2021/11/08 16:35:37;;;;;;;88.47;20.50;;;;;;;;;;6283621;22;20502;-96
2021/11/08 16:38:06;;;;;;;90.90;22.00;;;;;;;;;;6283490;22;20407;-95
2021/11/08 16:40:33;;;;;;;95.60;25.70;;;;;;;;;;6282752;22;20472;-95
2021/11/08 16:43:00;;;;;;;96.20;23.47;;;;;;;;;;6281944;22;20420;-95
2021/11/08 16:45:30;;;;;;;105.33;32.33;;;;;;;;;;6282737;22;20397;-96